Time;durP1;ratioP1;P1;durP2;ratioP2;P2;SDS_P1;SDS_P2;PMS_P1;PMS_P2;Temp;Humidity;BMP_temperature;BMP_pressure;BME280_temperature;BME280_humidity;BME280_pressure;Samples;Min_cycle;Max_cycle;Signal;HPM_P1;HPM_P2
2021/07/28 00:00:57;;;;;;;8.70;7.80;;;;;;;;;;5056318;28;20464;-72
2021/07/28 00:03:25;;;;;;;9.70;8.53;;;;;;;;;;5056510;28;20557;-72
2021/07/28 00:05:53;;;;;;;9.67;8.40;;;;;;;;;;5056373;28;20461;-72
2021/07/28 00:08:21;;;;;;;8.93;7.83;;;;;;;;;;5056466;28;20729;-72
2021/07/28 00:10:50;;;;;;;9.83;8.67;;;;;;;;;;5056501;28;20457;-72
2021/07/28 00:13:17;;;;;;;9.77;8.77;;;;;;;;;;5056183;28;20453;-72
2021/07/28 00:15:45;;;;;;;8.27;7.37;;;;;;;;;;5056459;28;20471;-72
2021/07/28 00:18:19;;;;;;;10.13;8.33;;;;;;;;;;5055957;28;20453;-72
2021/07/28 00:23:32;;;;;;;9.50;7.33;;;;;;;;;;5055664;28;20425;-72
2021/07/28 00:26:01;;;;;;;11.30;7.60;;;;;;;;;;5056714;28;20461;-72
2021/07/28 00:28:29;;;;;;;10.77;7.60;;;;;;;;;;5056203;28;20472;-72
2021/07/28 00:30:57;;;;;;;12.60;8.40;;;;;;;;;;5056365;28;20473;-72
2021/07/28 00:33:24;;;;;;;10.47;8.30;;;;;;;;;;5056152;28;20453;-72
2021/07/28 00:35:54;;;;;;;7.90;6.97;;;;;;;;;;5056008;28;20457;-72
2021/07/28 00:38:24;;;;;;;9.80;7.93;;;;;;;;;;5056174;28;20811;-71
2021/07/28 00:40:51;;;;;;;11.50;7.60;;;;;;;;;;5060542;28;20573;-71
2021/07/28 00:43:24;;;;;;;8.50;6.73;;;;;;;;;;5060043;28;20469;-71
2021/07/28 00:45:52;;;;;;;9.93;7.97;;;;;;;;;;5059981;28;20752;-71
2021/07/28 00:48:19;;;;;;;12.40;9.37;;;;;;;;;;5059965;28;20888;-71
2021/07/28 00:50:48;;;;;;;9.40;7.60;;;;;;;;;;5060059;28;20493;-72
2021/07/28 00:53:20;;;;;;;9.10;8.03;;;;;;;;;;5059674;28;20461;-71
2021/07/28 00:55:48;;;;;;;10.30;7.83;;;;;;;;;;5059903;28;20728;-72
2021/07/28 00:58:16;;;;;;;8.73;7.10;;;;;;;;;;5059916;28;20767;-70
2021/07/28 01:00:45;;;;;;;10.17;7.43;;;;;;;;;;5059959;28;20457;-72
2021/07/28 01:03:16;;;;;;;10.07;8.03;;;;;;;;;;5059890;28;20488;-72
2021/07/28 01:05:44;;;;;;;9.13;6.97;;;;;;;;;;5059715;28;20453;-72
2021/07/28 01:08:12;;;;;;;10.13;8.40;;;;;;;;;;5059568;28;20449;-72
2021/07/28 01:10:40;;;;;;;13.50;7.53;;;;;;;;;;5059684;28;20590;-72
2021/07/28 01:13:08;;;;;;;9.40;6.70;;;;;;;;;;5059555;28;20795;-72
2021/07/28 01:15:42;;;;;;;7.77;6.53;;;;;;;;;;5059526;28;20983;-72
2021/07/28 01:18:13;;;;;;;9.03;7.47;;;;;;;;;;5059080;28;20448;-72
2021/07/28 01:20:42;;;;;;;10.00;7.70;;;;;;;;;;5059560;28;20534;-72
2021/07/28 01:23:11;;;;;;;11.13;7.80;;;;;;;;;;5059377;28;20453;-72
2021/07/28 01:25:41;;;;;;;8.73;7.07;;;;;;;;;;5059648;28;20461;-72
2021/07/28 01:28:09;;;;;;;9.10;7.37;;;;;;;;;;5059055;28;20515;-72
2021/07/28 01:30:37;;;;;;;9.83;7.10;;;;;;;;;;5058809;28;20524;-72
2021/07/28 01:33:05;;;;;;;11.60;6.90;;;;;;;;;;5059357;28;20457;-72
2021/07/28 01:35:33;;;;;;;9.30;7.47;;;;;;;;;;5059113;28;20548;-72
2021/07/28 01:38:02;;;;;;;10.13;7.47;;;;;;;;;;5059060;28;20544;-72
2021/07/28 01:40:29;;;;;;;12.10;7.47;;;;;;;;;;5059131;28;20484;-72
2021/07/28 01:42:58;;;;;;;9.23;7.13;;;;;;;;;;5058758;28;20450;-72
2021/07/28 01:45:28;;;;;;;11.00;7.17;;;;;;;;;;5058826;28;20786;-72
2021/07/28 01:47:55;;;;;;;8.97;7.30;;;;;;;;;;5059110;28;20489;-72
2021/07/28 01:50:23;;;;;;;12.67;8.07;;;;;;;;;;5058074;28;20878;-72
2021/07/28 01:52:50;;;;;;;10.43;7.60;;;;;;;;;;5059146;28;20596;-72
2021/07/28 01:55:18;;;;;;;12.73;6.83;;;;;;;;;;5058783;28;20457;-72
2021/07/28 01:57:46;;;;;;;12.90;7.27;;;;;;;;;;5058638;28;20942;-72
2021/07/28 02:00:15;;;;;;;13.73;8.70;;;;;;;;;;5058234;28;20461;-72
2021/07/28 02:02:43;;;;;;;15.83;8.03;;;;;;;;;;5058588;28;20834;-72
2021/07/28 02:05:11;;;;;;;9.70;7.50;;;;;;;;;;5058400;28;20737;-72
2021/07/28 02:07:39;;;;;;;9.60;8.30;;;;;;;;;;5058525;28;20710;-72
2021/07/28 02:10:07;;;;;;;10.37;7.67;;;;;;;;;;5059012;28;20488;-72
2021/07/28 02:12:36;;;;;;;8.93;7.13;;;;;;;;;;5058807;28;20453;-72
2021/07/28 02:15:04;;;;;;;12.27;7.37;;;;;;;;;;5058440;28;20500;-72
2021/07/28 02:17:33;;;;;;;13.50;8.00;;;;;;;;;;5058380;28;20540;-72
2021/07/28 02:20:01;;;;;;;10.30;6.93;;;;;;;;;;5058347;28;20460;-72
2021/07/28 02:22:28;;;;;;;9.80;7.70;;;;;;;;;;5057531;28;20438;-72
2021/07/28 02:24:56;;;;;;;12.40;8.37;;;;;;;;;;5057906;28;20465;-72
2021/07/28 02:27:24;;;;;;;8.23;7.27;;;;;;;;;;5058359;28;20861;-72
2021/07/28 02:29:51;;;;;;;9.90;7.80;;;;;;;;;;5057573;28;20832;-72
2021/07/28 02:32:19;;;;;;;10.60;7.43;;;;;;;;;;5057758;28;20449;-72
2021/07/28 02:34:48;;;;;;;9.00;6.80;;;;;;;;;;5058151;28;20484;-72
2021/07/28 02:37:15;;;;;;;8.43;6.93;;;;;;;;;;5058358;28;20869;-73
2021/07/28 02:39:43;;;;;;;7.40;6.40;;;;;;;;;;5057439;28;20457;-72
2021/07/28 02:42:10;;;;;;;10.77;7.17;;;;;;;;;;5057909;28;20779;-72
2021/07/28 02:44:38;;;;;;;9.60;7.37;;;;;;;;;;5057944;28;20837;-72
2021/07/28 02:47:06;;;;;;;11.00;7.20;;;;;;;;;;5057306;28;20841;-72
2021/07/28 02:49:33;;;;;;;10.03;6.40;;;;;;;;;;5057815;28;20521;-72
2021/07/28 02:52:03;;;;;;;8.70;6.77;;;;;;;;;;5057833;28;20450;-72
2021/07/28 02:54:30;;;;;;;8.90;7.23;;;;;;;;;;5057742;28;20454;-72
2021/07/28 02:56:58;;;;;;;10.30;8.10;;;;;;;;;;5057458;28;20869;-72
2021/07/28 02:59:26;;;;;;;9.30;6.97;;;;;;;;;;5057153;28;20504;-72
2021/07/28 03:01:54;;;;;;;8.80;6.63;;;;;;;;;;5057608;28;20473;-72
2021/07/28 03:04:22;;;;;;;10.43;6.97;;;;;;;;;;5057285;28;20915;-72
2021/07/28 03:06:49;;;;;;;8.57;7.23;;;;;;;;;;5057372;28;20950;-72
2021/07/28 03:09:19;;;;;;;29.70;18.93;;;;;;;;;;5055935;28;20460;-72
2021/07/28 03:11:46;;;;;;;9.03;7.17;;;;;;;;;;5057026;28;20458;-72
2021/07/28 03:14:14;;;;;;;9.67;6.90;;;;;;;;;;5056544;28;20450;-72
2021/07/28 03:16:42;;;;;;;8.97;7.40;;;;;;;;;;5057216;28;20473;-72
2021/07/28 03:19:10;;;;;;;9.30;6.70;;;;;;;;;;5057124;28;20453;-72
2021/07/28 03:21:38;;;;;;;11.47;7.80;;;;;;;;;;5057222;28;20453;-72
2021/07/28 03:24:06;;;;;;;8.70;6.90;;;;;;;;;;5057071;28;20453;-72
2021/07/28 03:26:35;;;;;;;11.43;7.30;;;;;;;;;;5056910;28;20737;-72
2021/07/28 03:29:03;;;;;;;9.63;6.70;;;;;;;;;;5056911;28;20532;-72
2021/07/28 03:31:31;;;;;;;9.93;7.00;;;;;;;;;;5056981;28;20521;-71
2021/07/28 03:33:58;;;;;;;8.60;7.00;;;;;;;;;;5056806;28;20481;-72
2021/07/28 03:36:26;;;;;;;10.93;8.53;;;;;;;;;;5056847;28;20479;-72
2021/07/28 03:38:54;;;;;;;11.03;7.43;;;;;;;;;;5056536;28;20544;-72
2021/07/28 03:41:24;;;;;;;11.30;7.70;;;;;;;;;;5056950;28;20480;-72
2021/07/28 03:43:53;;;;;;;11.43;7.23;;;;;;;;;;5056630;28;20515;-72
2021/07/28 03:46:21;;;;;;;9.10;7.17;;;;;;;;;;5056585;28;20469;-72
2021/07/28 03:48:49;;;;;;;9.10;7.10;;;;;;;;;;5047994;28;21171;-72
2021/07/28 03:51:16;;;;;;;14.67;7.13;;;;;;;;;;5056850;28;20968;-72
2021/07/28 03:53:44;;;;;;;10.67;7.50;;;;;;;;;;5056413;28;20544;-72
2021/07/28 03:56:12;;;;;;;10.13;7.47;;;;;;;;;;5057051;28;20552;-72
2021/07/28 03:58:39;;;;;;;9.67;6.50;;;;;;;;;;5056788;28;20544;-72
2021/07/28 04:01:08;;;;;;;8.60;6.73;;;;;;;;;;5056430;28;20472;-72
2021/07/28 04:03:37;;;;;;;8.50;6.67;;;;;;;;;;5056239;28;20450;-72
2021/07/28 04:06:04;;;;;;;8.67;6.77;;;;;;;;;;5056760;28;20873;-73
2021/07/28 04:08:32;;;;;;;13.33;7.20;;;;;;;;;;5056267;28;20481;-72
2021/07/28 04:11:00;;;;;;;10.47;6.60;;;;;;;;;;5056438;28;20495;-71
2021/07/28 04:13:31;;;;;;;8.60;5.93;;;;;;;;;;5057310;28;20519;-72
2021/07/28 04:15:58;;;;;;;10.93;6.87;;;;;;;;;;5063163;28;20471;-72
2021/07/28 04:18:27;;;;;;;9.67;7.00;;;;;;;;;;5063126;28;20856;-72
2021/07/28 04:20:55;;;;;;;8.47;6.90;;;;;;;;;;5062786;28;20463;-72
2021/07/28 04:23:23;;;;;;;8.33;6.57;;;;;;;;;;5062695;28;20857;-72
2021/07/28 04:25:50;;;;;;;12.23;7.30;;;;;;;;;;5062860;28;20457;-72
2021/07/28 04:28:18;;;;;;;9.43;6.80;;;;;;;;;;5062943;28;20548;-72
2021/07/28 04:30:49;;;;;;;7.33;5.47;;;;;;;;;;5062983;28;20481;-72
2021/07/28 04:33:17;;;;;;;8.63;6.10;;;;;;;;;;5062577;28;20814;-72
2021/07/28 04:35:46;;;;;;;11.30;6.47;;;;;;;;;;5062763;28;20457;-72
2021/07/28 04:38:14;;;;;;;8.40;6.70;;;;;;;;;;5062468;28;20931;-72
2021/07/28 04:40:42;;;;;;;8.47;5.70;;;;;;;;;;5062960;28;20903;-72
2021/07/28 04:43:09;;;;;;;9.37;6.27;;;;;;;;;;5062414;28;20837;-72
2021/07/28 04:45:39;;;;;;;8.23;6.13;;;;;;;;;;5062736;28;20487;-72
2021/07/28 04:48:06;;;;;;;7.57;5.43;;;;;;;;;;5062947;28;20853;-72
2021/07/28 04:50:34;;;;;;;9.60;5.47;;;;;;;;;;5062880;28;21154;-72
2021/07/28 04:53:04;;;;;;;10.43;6.53;;;;;;;;;;5062862;28;20473;-72
2021/07/28 04:55:33;;;;;;;11.70;6.67;;;;;;;;;;5062443;28;20455;-72
2021/07/28 04:58:01;;;;;;;10.43;6.57;;;;;;;;;;5061970;28;20460;-72
2021/07/28 05:00:28;;;;;;;8.50;5.70;;;;;;;;;;5062398;28;20457;-72
2021/07/28 05:02:56;;;;;;;9.83;6.40;;;;;;;;;;5062462;28;20512;-72
2021/07/28 05:05:24;;;;;;;6.57;5.23;;;;;;;;;;5062445;28;20453;-72
2021/07/28 05:07:51;;;;;;;10.30;6.00;;;;;;;;;;5062554;28;20449;-73
2021/07/28 05:10:21;;;;;;;7.30;5.30;;;;;;;;;;5061608;28;20493;-72
2021/07/28 05:12:48;;;;;;;8.73;5.40;;;;;;;;;;5054406;28;20461;-72
2021/07/28 05:15:19;;;;;;;10.10;5.97;;;;;;;;;;5062183;28;20745;-73
2021/07/28 05:17:46;;;;;;;8.70;5.70;;;;;;;;;;5054027;28;20449;-72
2021/07/28 05:20:18;;;;;;;6.93;4.93;;;;;;;;;;5062115;28;20453;-72
2021/07/28 05:22:45;;;;;;;9.13;5.20;;;;;;;;;;5061494;28;20971;-72
2021/07/28 05:25:13;;;;;;;7.60;5.63;;;;;;;;;;5059454;28;20866;-72
2021/07/28 05:27:43;;;;;;;6.60;5.40;;;;;;;;;;5057799;28;20468;-72
2021/07/28 05:30:11;;;;;;;8.37;5.60;;;;;;;;;;5057573;28;20461;-72
2021/07/28 05:32:39;;;;;;;10.80;5.70;;;;;;;;;;5057311;28;20450;-72
2021/07/28 05:35:07;;;;;;;7.50;5.73;;;;;;;;;;5057625;28;20888;-72
2021/07/28 05:37:35;;;;;;;8.00;5.73;;;;;;;;;;5057066;28;20449;-71
2021/07/28 05:40:03;;;;;;;7.30;5.37;;;;;;;;;;5052208;28;20466;-73
2021/07/28 05:42:30;;;;;;;9.33;6.20;;;;;;;;;;5037583;28;20462;-72
2021/07/28 05:45:01;;;;;;;7.00;5.73;;;;;;;;;;5037525;28;20531;-72
2021/07/28 05:47:29;;;;;;;7.10;5.40;;;;;;;;;;5038484;28;20502;-72
2021/07/28 05:49:58;;;;;;;6.43;5.73;;;;;;;;;;5037151;28;20443;-72
2021/07/28 05:52:26;;;;;;;7.57;5.70;;;;;;;;;;5037309;28;20585;-72
2021/07/28 05:54:53;;;;;;;6.73;5.77;;;;;;;;;;5037723;28;20841;-71
2021/07/28 05:57:21;;;;;;;8.40;6.43;;;;;;;;;;5037155;28;20870;-72
2021/07/28 05:59:51;;;;;;;10.80;5.20;;;;;;;;;;5054407;28;20449;-73
2021/07/28 06:02:20;;;;;;;8.20;6.27;;;;;;;;;;5057240;28;20461;-72
2021/07/28 06:04:47;;;;;;;6.80;5.13;;;;;;;;;;5056466;28;20869;-72
2021/07/28 06:07:18;;;;;;;10.03;5.40;;;;;;;;;;5056457;28;20449;-72
2021/07/28 06:09:46;;;;;;;6.30;4.30;;;;;;;;;;5056355;28;20465;-72
2021/07/28 06:12:16;;;;;;;7.83;5.50;;;;;;;;;;5056907;28;20586;-72
2021/07/28 06:14:45;;;;;;;6.80;5.47;;;;;;;;;;5056861;28;20530;-72
2021/07/28 06:17:14;;;;;;;8.07;5.30;;;;;;;;;;5036704;28;20458;-71
2021/07/28 06:19:46;;;;;;;9.00;5.57;;;;;;;;;;5036681;28;20562;-72
2021/07/28 06:22:14;;;;;;;6.80;5.10;;;;;;;;;;5036842;28;20581;-72
2021/07/28 06:24:41;;;;;;;6.80;4.37;;;;;;;;;;5036446;28;20457;-72
2021/07/28 06:27:09;;;;;;;7.80;5.20;;;;;;;;;;5036158;28;20898;-72
2021/07/28 06:29:37;;;;;;;8.33;5.23;;;;;;;;;;5036363;28;20482;-72
2021/07/28 06:32:05;;;;;;;7.33;4.67;;;;;;;;;;5036908;28;20488;-72
2021/07/28 06:34:35;;;;;;;5.83;4.67;;;;;;;;;;5036876;28;20841;-72
2021/07/28 06:37:09;;;;;;;7.53;4.30;;;;;;;;;;5036120;28;20477;-72
2021/07/28 06:39:38;;;;;;;9.03;5.73;;;;;;;;;;5053297;28;20543;-71
2021/07/28 06:42:06;;;;;;;9.63;4.40;;;;;;;;;;5055062;28;20455;-73
2021/07/28 06:44:34;;;;;;;6.90;4.70;;;;;;;;;;5055421;28;20457;-71
2021/07/28 06:47:02;;;;;;;7.80;5.13;;;;;;;;;;5054922;28;20555;-72
2021/07/28 06:49:30;;;;;;;6.00;4.00;;;;;;;;;;5037669;28;20466;-72
2021/07/28 06:51:58;;;;;;;34.23;5.53;;;;;;;;;;5051999;28;20481;-72
2021/07/28 06:54:27;;;;;;;7.93;6.50;;;;;;;;;;5055589;28;20457;-72
2021/07/28 06:56:55;;;;;;;8.57;5.17;;;;;;;;;;5054914;28;20465;-71
2021/07/28 06:59:22;;;;;;;6.60;5.10;;;;;;;;;;5049990;28;20473;-70
2021/07/28 07:01:51;;;;;;;9.43;5.53;;;;;;;;;;5055250;28;20456;-72
2021/07/28 07:04:19;;;;;;;5.90;5.30;;;;;;;;;;5055107;28;20461;-72
2021/07/28 07:06:48;;;;;;;7.17;4.70;;;;;;;;;;5055378;28;20454;-71
2021/07/28 07:09:17;;;;;;;8.27;6.20;;;;;;;;;;5055320;28;20996;-74
2021/07/28 07:11:46;;;;;;;7.37;5.50;;;;;;;;;;5055256;28;20769;-71
2021/07/28 07:14:15;;;;;;;7.67;4.83;;;;;;;;;;5055301;28;20982;-72
2021/07/28 07:16:43;;;;;;;11.83;5.47;;;;;;;;;;5054501;28;20468;-71
2021/07/28 07:19:11;;;;;;;7.60;4.90;;;;;;;;;;5054774;28;20454;-71
2021/07/28 07:21:39;;;;;;;7.30;5.50;;;;;;;;;;5055313;28;20446;-71
2021/07/28 07:24:10;;;;;;;8.17;5.83;;;;;;;;;;5055052;28;20552;-70
2021/07/28 07:26:37;;;;;;;8.30;5.87;;;;;;;;;;5054065;28;20878;-71
2021/07/28 07:29:26;;;;;;;9.07;5.00;;;;;;;;;;5054826;28;20820;-72
2021/07/28 07:31:57;;;;;;;6.50;5.63;;;;;;;;;;5054062;28;20568;-71
2021/07/28 07:34:25;;;;;;;7.97;5.30;;;;;;;;;;5054286;28;20445;-72
2021/07/28 07:36:55;;;;;;;12.43;6.50;;;;;;;;;;5054444;28;20470;-72
2021/07/28 07:39:26;;;;;;;6.30;4.40;;;;;;;;;;5053506;28;20519;-73
2021/07/28 07:41:56;;;;;;;6.47;4.17;;;;;;;;;;5055922;28;20519;-72
2021/07/28 07:44:27;;;;;;;6.30;4.87;;;;;;;;;;5043389;28;20465;-73
2021/07/28 07:46:57;;;;;;;8.87;4.90;;;;;;;;;;5053795;28;20568;-72
2021/07/28 07:49:25;;;;;;;7.27;4.80;;;;;;;;;;5053001;28;20460;-71
2021/07/28 07:51:55;;;;;;;7.73;5.40;;;;;;;;;;5055049;28;20954;-71
2021/07/28 07:54:27;;;;;;;6.63;5.13;;;;;;;;;;5052912;28;20583;-72
2021/07/28 07:56:57;;;;;;;8.27;4.27;;;;;;;;;;5053447;28;20486;-72
2021/07/28 07:59:25;;;;;;;10.13;4.33;;;;;;;;;;5054403;28;20492;-71
2021/07/28 08:01:53;;;;;;;7.27;4.03;;;;;;;;;;5053729;28;20472;-70
2021/07/28 08:04:25;;;;;;;6.20;4.40;;;;;;;;;;5056194;28;20449;-70
2021/07/28 08:06:53;;;;;;;6.10;4.00;;;;;;;;;;5060281;28;21154;-71
2021/07/28 08:09:23;;;;;;;6.03;4.50;;;;;;;;;;5052255;28;20763;-71
2021/07/28 08:11:54;;;;;;;4.93;4.30;;;;;;;;;;5055220;28;20493;-71
2021/07/28 08:14:22;;;;;;;6.23;4.47;;;;;;;;;;5053209;28;21096;-72
2021/07/28 08:16:50;;;;;;;7.27;4.30;;;;;;;;;;5053742;28;20499;-71
2021/07/28 08:19:18;;;;;;;6.40;3.77;;;;;;;;;;5052434;28;20454;-71
2021/07/28 08:21:47;;;;;;;5.93;3.87;;;;;;;;;;5055905;28;20734;-71
2021/07/28 08:24:16;;;;;;;5.93;4.70;;;;;;;;;;5054673;28;20496;-70
2021/07/28 08:26:44;;;;;;;11.43;4.53;;;;;;;;;;5054710;28;20445;-73
2021/07/28 08:29:13;;;;;;;5.20;4.43;;;;;;;;;;5055549;28;20877;-71
2021/07/28 08:31:41;;;;;;;7.67;4.30;;;;;;;;;;5053650;28;20492;-73
2021/07/28 08:34:09;;;;;;;5.60;3.40;;;;;;;;;;5053515;28;20476;-73
2021/07/28 08:36:36;;;;;;;4.70;3.80;;;;;;;;;;5053872;28;20449;-72
2021/07/28 08:39:06;;;;;;;5.23;3.87;;;;;;;;;;5057245;28;20492;-71
2021/07/28 08:41:47;;;;;;;5.80;3.17;;;;;;;;;;5055219;28;21045;-71
2021/07/28 08:44:19;;;;;;;5.20;3.63;;;;;;;;;;5054425;28;20473;-71
2021/07/28 08:46:49;;;;;;;5.30;3.90;;;;;;;;;;5053605;28;20457;-70
2021/07/28 08:49:16;;;;;;;4.97;3.70;;;;;;;;;;5054510;28;20453;-71
2021/07/28 08:54:28;;;;;;;5.07;3.67;;;;;;;;;;5048672;28;20520;-72
2021/07/28 08:57:01;;;;;;;5.80;3.40;;;;;;;;;;5054207;28;20529;-71
2021/07/28 08:59:30;;;;;;;4.83;4.30;;;;;;;;;;5055101;28;20493;-70
2021/07/28 09:02:01;;;;;;;5.40;4.57;;;;;;;;;;5058651;28;20502;-71
2021/07/28 09:04:37;;;;;;;4.27;3.70;;;;;;;;;;5056258;28;20476;-72
2021/07/28 09:07:17;;;;;;;5.10;3.17;;;;;;;;;;5057682;28;20453;-73
2021/07/28 09:09:52;;;;;;;4.73;3.60;;;;;;;;;;5056660;28;20547;-72
2021/07/28 09:12:22;;;;;;;5.10;4.20;;;;;;;;;;5057094;28;20520;-72
2021/07/28 09:15:03;;;;;;;9.07;4.47;;;;;;;;;;5058052;28;20491;-72
2021/07/28 09:17:43;;;;;;;5.23;4.70;;;;;;;;;;5057741;28;20453;-73
2021/07/28 09:20:14;;;;;;;5.90;4.30;;;;;;;;;;5056918;28;20568;-73
2021/07/28 09:22:43;;;;;;;4.40;3.80;;;;;;;;;;5056371;28;20461;-72
2021/07/28 09:25:18;;;;;;;5.60;5.03;;;;;;;;;;5056986;28;20453;-73
2021/07/28 09:27:47;;;;;;;7.50;4.87;;;;;;;;;;5055927;28;20463;-71
2021/07/28 09:30:17;;;;;;;6.17;4.93;;;;;;;;;;5057849;28;20449;-72
2021/07/28 09:33:01;;;;;;;11.13;5.40;;;;;;;;;;5058342;28;20873;-72
2021/07/28 09:36:00;;;;;;;11.13;5.47;;;;;;;;;;5055988;28;20485;-72
2021/07/28 09:38:29;;;;;;;9.20;6.40;;;;;;;;;;4976748;28;20592;-72
2021/07/28 09:41:17;;;;;;;5.23;4.33;;;;;;;;;;5039226;28;20461;-73
2021/07/28 09:43:51;;;;;;;6.40;4.73;;;;;;;;;;5058230;28;20433;-72
2021/07/28 09:46:31;;;;;;;6.07;5.47;;;;;;;;;;4959055;28;2672310;-73
2021/07/28 09:49:04;;;;;;;5.90;4.60;;;;;;;;;;5055515;28;20198;-72
2021/07/28 09:51:38;;;;;;;7.10;4.77;;;;;;;;;;5057688;28;20481;-74
2021/07/28 09:54:16;;;;;;;8.50;6.67;;;;;;;;;;5058108;28;20536;-72
2021/07/28 09:56:56;;;;;;;7.33;4.80;;;;;;;;;;5058006;28;20461;-72
2021/07/28 09:59:24;;;;;;;6.10;5.30;;;;;;;;;;5058617;28;20449;-71
2021/07/28 10:01:55;;;;;;;6.83;6.13;;;;;;;;;;5057180;28;20552;-72
2021/07/28 10:04:30;;;;;;;7.70;5.93;;;;;;;;;;5058289;28;20942;-71
2021/07/28 10:06:59;;;;;;;6.23;5.60;;;;;;;;;;5057159;28;20887;-72
2021/07/28 10:09:28;;;;;;;5.73;4.50;;;;;;;;;;5058888;28;20446;-72
2021/07/28 10:12:00;;;;;;;7.30;5.73;;;;;;;;;;5057035;28;20481;-72
2021/07/28 10:14:30;;;;;;;7.63;5.40;;;;;;;;;;5055139;28;21017;-72
2021/07/28 10:17:05;;;;;;;4.87;4.37;;;;;;;;;;5054784;28;20446;-74
2021/07/28 10:19:37;;;;;;;8.27;5.83;;;;;;;;;;5048867;28;20505;-73
2021/07/28 10:22:12;;;;;;;6.90;4.60;;;;;;;;;;5050137;28;20849;-73
2021/07/28 10:24:41;;;;;;;8.30;5.40;;;;;;;;;;5047636;28;20849;-73
2021/07/28 10:27:11;;;;;;;8.67;5.23;;;;;;;;;;5055870;28;20465;-72
2021/07/28 10:29:39;;;;;;;7.57;5.33;;;;;;;;;;5057374;28;20453;-72
2021/07/28 10:32:10;;;;;;;7.00;5.50;;;;;;;;;;5055455;28;20492;-72
2021/07/28 10:34:40;;;;;;;6.23;5.63;;;;;;;;;;5054766;28;20512;-72
2021/07/28 10:37:13;;;;;;;5.93;4.57;;;;;;;;;;5054869;28;20461;-72
2021/07/28 10:39:42;;;;;;;6.20;4.30;;;;;;;;;;5058907;28;20552;-73
2021/07/28 10:42:13;;;;;;;4.10;3.37;;;;;;;;;;5051438;28;20454;-73
2021/07/28 10:45:00;;;;;;;3.97;3.57;;;;;;;;;;5056496;28;20500;-71
2021/07/28 10:47:41;;;;;;;7.47;4.30;;;;;;;;;;5052919;28;20531;-72
2021/07/28 10:50:10;;;;;;;7.10;5.23;;;;;;;;;;5055767;28;20878;-72
2021/07/28 10:52:41;;;;;;;6.00;5.37;;;;;;;;;;5057392;28;20577;-73
2021/07/28 10:55:19;;;;;;;8.80;6.20;;;;;;;;;;5056504;28;20446;-71
2021/07/28 10:58:08;;;;;;;5.03;4.30;;;;;;;;;;5050043;28;20472;-71
2021/07/28 11:00:50;;;;;;;7.47;5.40;;;;;;;;;;5059204;28;20445;-72
2021/07/28 11:03:23;;;;;;;6.10;4.87;;;;;;;;;;5061595;28;20452;-73
2021/07/28 11:05:55;;;;;;;6.00;3.87;;;;;;;;;;5050766;28;20786;-74
2021/07/28 11:08:25;;;;;;;4.03;3.53;;;;;;;;;;5056162;28;20727;-73
2021/07/28 11:11:01;;;;;;;5.87;4.07;;;;;;;;;;5055549;28;20462;-73
2021/07/28 11:13:30;;;;;;;4.23;3.37;;;;;;;;;;5054432;28;20484;-72
2021/07/28 11:16:01;;;;;;;4.13;3.43;;;;;;;;;;5066653;28;20465;-72
2021/07/28 11:18:53;;;;;;;5.83;3.80;;;;;;;;;;5054315;28;20445;-72
2021/07/28 11:21:22;;;;;;;5.73;4.80;;;;;;;;;;5052986;28;20532;-73
2021/07/28 11:24:10;;;;;;;6.13;3.37;;;;;;;;;;5055419;28;20877;-73
2021/07/28 11:26:42;;;;;;;3.60;3.13;;;;;;;;;;5051295;28;20892;-73
2021/07/28 11:29:25;;;;;;;5.23;3.93;;;;;;;;;;5056100;28;20480;-73
2021/07/28 11:32:07;;;;;;;4.77;2.93;;;;;;;;;;5055187;28;20484;-71
2021/07/28 11:34:55;;;;;;;4.03;3.07;;;;;;;;;;5053665;28;20453;-73
2021/07/28 11:37:24;;;;;;;5.27;3.93;;;;;;;;;;5052097;28;20469;-72
2021/07/28 11:40:05;;;;;;;6.10;3.67;;;;;;;;;;5058540;28;20481;-72
2021/07/28 11:42:37;;;;;;;5.30;3.03;;;;;;;;;;5059506;28;20461;-71
2021/07/28 11:45:06;;;;;;;9.20;6.57;;;;;;;;;;5058917;28;20457;-72
2021/07/28 11:47:36;;;;;;;3.90;3.03;;;;;;;;;;5056577;28;20927;-72
2021/07/28 11:50:06;;;;;;;9.03;3.40;;;;;;;;;;5057772;28;20474;-71
2021/07/28 11:52:48;;;;;;;5.27;3.47;;;;;;;;;;5056748;28;20489;-72
2021/07/28 11:55:25;;;;;;;5.70;3.67;;;;;;;;;;5055387;28;20540;-71
2021/07/28 11:57:55;;;;;;;3.57;3.00;;;;;;;;;;5061248;28;20476;-71
2021/07/28 12:00:34;;;;;;;8.13;3.20;;;;;;;;;;5056177;28;20702;-72
2021/07/28 12:03:24;;;;;;;5.43;2.80;;;;;;;;;;5055524;28;20533;-72
2021/07/28 12:06:10;;;;;;;6.70;3.23;;;;;;;;;;5057176;28;20847;-71
2021/07/28 12:08:40;;;;;;;4.47;3.17;;;;;;;;;;5056595;28;20468;-71
2021/07/28 12:11:12;;;;;;;6.07;3.37;;;;;;;;;;5054440;28;20469;-71
2021/07/28 12:13:41;;;;;;;5.20;3.30;;;;;;;;;;5056651;28;20515;-70
2021/07/28 12:16:10;;;;;;;4.20;3.17;;;;;;;;;;5055769;28;20469;-71
2021/07/28 12:18:45;;;;;;;6.10;4.30;;;;;;;;;;5056217;28;20555;-71
2021/07/28 12:21:17;;;;;;;7.23;3.93;;;;;;;;;;5056454;28;20459;-71
2021/07/28 12:24:06;;;;;;;7.43;4.93;;;;;;;;;;5055825;28;20560;-71
2021/07/28 12:27:11;;;;;;;5.73;3.50;;;;;;;;;;5056094;28;20487;-71
2021/07/28 12:32:40;;;;;;;5.90;2.53;;;;;;;;;;5057129;28;20481;-72
2021/07/28 12:35:09;;;;;;;3.90;2.70;;;;;;;;;;5056533;28;20455;-72
2021/07/28 12:37:38;;;;;;;5.97;3.67;;;;;;;;;;5059841;28;20461;-73
2021/07/28 12:40:07;;;;;;;9.03;4.13;;;;;;;;;;5055326;28;20441;-72
2021/07/28 12:42:52;;;;;;;4.13;3.50;;;;;;;;;;5058764;28;20885;-71
2021/07/28 12:45:31;;;;;;;5.93;4.20;;;;;;;;;;5061622;28;20514;-71
2021/07/28 12:48:00;;;;;;;4.47;3.70;;;;;;;;;;5060341;28;20460;-71
2021/07/28 12:50:32;;;;;;;3.60;3.07;;;;;;;;;;5061472;28;20508;-72
2021/07/28 12:53:28;;;;;;;9.30;5.77;;;;;;;;;;5052025;28;20501;-71
2021/07/28 12:56:03;;;;;;;5.17;4.20;;;;;;;;;;5048555;28;20733;-71
2021/07/28 12:58:50;;;;;;;4.47;3.40;;;;;;;;;;5064393;28;20475;-72
2021/07/28 13:01:21;;;;;;;5.90;5.13;;;;;;;;;;5058856;28;20550;-71
2021/07/28 13:04:15;;;;;;;6.20;3.53;;;;;;;;;;5067399;28;20840;-71
2021/07/28 13:07:00;;;;;;;3.40;2.70;;;;;;;;;;5082675;28;20455;-72
2021/07/28 13:09:28;;;;;;;4.00;3.30;;;;;;;;;;5080355;28;20464;-70
2021/07/28 13:12:02;;;;;;;10.80;3.90;;;;;;;;;;5061269;28;20539;-71
2021/07/28 13:14:31;;;;;;;7.80;4.70;;;;;;;;;;5061010;28;20490;-71
2021/07/28 13:17:06;;;;;;;6.37;4.63;;;;;;;;;;5060126;28;20465;-71
2021/07/28 13:19:41;;;;;;;9.47;5.73;;;;;;;;;;5059939;28;20458;-76
2021/07/28 13:22:16;;;;;;;6.00;3.80;;;;;;;;;;5059022;28;20508;-72
2021/07/28 13:24:43;;;;;;;8.10;5.13;;;;;;;;;;5058902;28;20457;-73
2021/07/28 13:27:16;;;;;;;9.87;4.13;;;;;;;;;;5058843;28;20465;-70
2021/07/28 13:29:49;;;;;;;7.10;6.33;;;;;;;;;;5063604;28;20469;-73
2021/07/28 13:32:17;;;;;;;9.07;5.63;;;;;;;;;;5040580;28;20885;-71
2021/07/28 13:34:52;;;;;;;6.80;4.97;;;;;;;;;;5064712;28;20495;-72
2021/07/28 13:37:41;;;;;;;9.90;4.47;;;;;;;;;;5062676;28;20500;-72
2021/07/28 13:43:01;;;;;;;6.00;4.00;;;;;;;;;;5054193;28;20508;-71
2021/07/28 13:45:35;;;;;;;6.53;4.37;;;;;;;;;;5060564;28;20941;-70
2021/07/28 13:48:09;;;;;;;6.93;3.53;;;;;;;;;;5058288;28;20764;-73
2021/07/28 13:50:37;;;;;;;6.90;5.10;;;;;;;;;;5059961;28;20860;-71
2021/07/28 13:53:06;;;;;;;5.80;4.83;;;;;;;;;;5059479;28;20516;-72
2021/07/28 13:55:34;;;;;;;7.07;4.57;;;;;;;;;;5058870;28;20442;-71
2021/07/28 13:58:13;;;;;;;5.83;5.10;;;;;;;;;;5058188;28;20473;-74
2021/07/28 14:00:41;;;;;;;6.73;5.00;;;;;;;;;;5058200;28;20458;-72
2021/07/28 14:03:09;;;;;;;5.97;4.40;;;;;;;;;;5058060;28;20579;-73
2021/07/28 14:05:38;;;;;;;8.20;5.90;;;;;;;;;;5058687;28;20470;-72
2021/07/28 14:08:09;;;;;;;10.00;6.30;;;;;;;;;;5057252;28;20515;-73
2021/07/28 14:10:50;;;;;;;;;;;;;;;;;;;;;
2021/07/28 14:13:25;;;;;;;6.50;5.03;;;;;;;;;;5058208;28;20491;-73
2021/07/28 14:15:53;;;;;;;11.87;8.47;;;;;;;;;;5058653;28;20534;-73
2021/07/28 14:18:22;;;;;;;10.07;8.17;;;;;;;;;;5059249;28;20457;-73
2021/07/28 14:20:52;;;;;;;7.80;6.30;;;;;;;;;;5059036;28;20812;-73
2021/07/28 14:23:20;;;;;;;8.20;5.47;;;;;;;;;;5057541;28;20458;-72
2021/07/28 14:25:48;;;;;;;7.40;4.87;;;;;;;;;;5057777;28;20457;-72
2021/07/28 14:28:23;;;;;;;5.50;4.70;;;;;;;;;;5056844;28;20457;-72
2021/07/28 14:30:53;;;;;;;6.90;5.50;;;;;;;;;;5058095;28;20457;-71
2021/07/28 14:33:21;;;;;;;5.13;3.90;;;;;;;;;;5056874;28;20538;-73
2021/07/28 14:35:56;;;;;;;7.67;4.30;;;;;;;;;;5058654;28;20465;-72
2021/07/28 14:38:27;;;;;;;9.30;3.90;;;;;;;;;;5057314;28;20454;-73
2021/07/28 14:40:55;;;;;;;6.80;3.70;;;;;;;;;;5056810;28;20469;-73
2021/07/28 14:43:24;;;;;;;8.90;4.27;;;;;;;;;;5055311;28;21192;-73
2021/07/28 14:46:00;;;;;;;8.33;4.13;;;;;;;;;;5056860;28;20470;-74
2021/07/28 14:48:29;;;;;;;5.10;4.23;;;;;;;;;;5055247;28;20464;-72
2021/07/28 14:50:57;;;;;;;3.67;3.10;;;;;;;;;;5046522;28;20474;-73
2021/07/28 14:53:29;;;;;;;6.40;3.70;;;;;;;;;;5052746;28;20497;-72
2021/07/28 14:55:57;;;;;;;8.60;5.47;;;;;;;;;;5054464;28;20481;-72
2021/07/28 14:58:31;;;;;;;4.07;3.20;;;;;;;;;;5060734;28;20482;-73
2021/07/28 15:01:06;;;;;;;7.47;6.03;;;;;;;;;;5063456;28;20457;-73
2021/07/28 15:03:39;;;;;;;5.47;3.83;;;;;;;;;;5055279;28;20469;-72
2021/07/28 15:06:08;;;;;;;4.60;4.03;;;;;;;;;;5059938;28;20522;-72
2021/07/28 15:08:36;;;;;;;5.97;4.80;;;;;;;;;;5059313;28;20466;-72
2021/07/28 15:11:04;;;;;;;7.57;5.07;;;;;;;;;;5051908;28;20450;-73
2021/07/28 15:13:32;;;;;;;6.10;4.33;;;;;;;;;;5063874;28;20572;-72